sensor_id;sensor_type;location;lat;lon;timestamp;pressure;altitude;pressure_sealevel;temperature;humidity
21096;BME280;10706;49.036;12.112;2023-02-22T00:00:43;97755.31;;;2.21;100.00
21096;BME280;10706;49.036;12.112;2023-02-22T00:03:15;97756.97;;;2.22;100.00
21096;BME280;10706;49.036;12.112;2023-02-22T00:05:42;97753.88;;;2.19;100.00
21096;BME280;10706;49.036;12.112;2023-02-22T00:08:16;97754.06;;;2.17;100.00
21096;BME280;10706;49.036;12.112;2023-02-22T00:10:43;97755.69;;;2.18;100.00
21096;BME280;10706;49.036;12.112;2023-02-22T00:13:12;97755.88;;;2.17;100.00
21096;BME280;10706;49.036;12.112;2023-02-22T00:15:39;97750.78;;;2.15;100.00
21096;BME280;10706;49.036;12.112;2023-02-22T00:18:12;97753.06;;;2.18;100.00
21096;BME280;10706;49.036;12.112;2023-02-22T00:20:39;97747.69;;;2.11;100.00
21096;BME280;10706;49.036;12.112;2023-02-22T00:23:16;97748.72;;;2.10;99.66
21096;BME280;10706;49.036;12.112;2023-02-22T00:25:47;97750.25;;;2.05;100.00
21096;BME280;10706;49.036;12.112;2023-02-22T00:28:14;97740.69;;;2.04;100.00
21096;BME280;10706;49.036;12.112;2023-02-22T00:30:41;97752.69;;;2.06;99.77
21096;BME280;10706;49.036;12.112;2023-02-22T00:33:13;97742.34;;;2.05;100.00
21096;BME280;10706;49.036;12.112;2023-02-22T00:35:39;97743.97;;;2.06;100.00
21096;BME280;10706;49.036;12.112;2023-02-22T00:38:06;97744.13;;;2.04;99.47
21096;BME280;10706;49.036;12.112;2023-02-22T00:40:34;97743.25;;;1.97;100.00
21096;BME280;10706;49.036;12.112;2023-02-22T00:43:03;97737.53;;;1.93;100.00
21096;BME280;10706;49.036;12.112;2023-02-22T00:45:31;97741.72;;;2.03;100.00
21096;BME280;10706;49.036;12.112;2023-02-22T00:47:58;97739.44;;;2.00;99.63
21096;BME280;10706;49.036;12.112;2023-02-22T00:50:26;97737.31;;;1.95;99.12
21096;BME280;10706;49.036;12.112;2023-02-22T00:52:54;97735.41;;;1.89;99.89
21096;BME280;10706;49.036;12.112;2023-02-22T00:55:35;97735.59;;;1.87;99.64
21096;BME280;10706;49.036;12.112;2023-02-22T00:58:03;97728.41;;;1.81;100.00
21096;BME280;10706;49.036;12.112;2023-02-22T01:00:33;97729.78;;;1.77;100.00
21096;BME280;10706;49.036;12.112;2023-02-22T01:03:00;97721.72;;;1.79;100.00
21096;BME280;10706;49.036;12.112;2023-02-22T01:05:28;97728.97;;;1.77;100.00
21096;BME280;10706;49.036;12.112;2023-02-22T01:07:56;97727.03;;;1.70;100.00
21096;BME280;10706;49.036;12.112;2023-02-22T01:10:25;97730.50;;;1.71;99.84
21096;BME280;10706;49.036;12.112;2023-02-22T01:12:52;97730.50;;;1.71;100.00
21096;BME280;10706;49.036;12.112;2023-02-22T01:15:21;97730.84;;;1.68;100.00
21096;BME280;10706;49.036;12.112;2023-02-22T01:17:50;97731.66;;;1.68;100.00
21096;BME280;10706;49.036;12.112;2023-02-22T01:20:17;97723.59;;;1.70;99.90
21096;BME280;10706;49.036;12.112;2023-02-22T01:22:47;97724.31;;;1.64;100.00
21096;BME280;10706;49.036;12.112;2023-02-22T01:25:22;97727.47;;;1.59;100.00
21096;BME280;10706;49.036;12.112;2023-02-22T01:27:49;97728.19;;;1.53;100.00
21096;BME280;10706;49.036;12.112;2023-02-22T01:30:21;97724.28;;;1.49;100.00
21096;BME280;10706;49.036;12.112;2023-02-22T01:32:47;97724.56;;;1.54;100.00
21096;BME280;10706;49.036;12.112;2023-02-22T01:35:20;97723.56;;;1.55;100.00
21096;BME280;10706;49.036;12.112;2023-02-22T01:37:46;97719.00;;;1.49;100.00
21096;BME280;10706;49.036;12.112;2023-02-22T01:40:29;97720.63;;;1.50;100.00
21096;BME280;10706;49.036;12.112;2023-02-22T01:43:03;97717.28;;;1.41;99.94
21096;BME280;10706;49.036;12.112;2023-02-22T01:45:37;97720.41;;;1.36;100.00
21096;BME280;10706;49.036;12.112;2023-02-22T01:50:53;97714.25;;;1.44;100.00
21096;BME280;10706;49.036;12.112;2023-02-22T01:53:26;97712.94;;;1.48;100.00
21096;BME280;10706;49.036;12.112;2023-02-22T01:55:55;97712.03;;;1.56;100.00
21096;BME280;10706;49.036;12.112;2023-02-22T01:58:23;97712.03;;;1.56;100.00
21096;BME280;10706;49.036;12.112;2023-02-22T02:00:50;97708.31;;;1.50;100.00
21096;BME280;10706;49.036;12.112;2023-02-22T02:03:21;97704.69;;;1.51;100.00
21096;BME280;10706;49.036;12.112;2023-02-22T02:05:50;97697.50;;;1.45;100.00
21096;BME280;10706;49.036;12.112;2023-02-22T02:11:17;97701.03;;;1.38;100.00
21096;BME280;10706;49.036;12.112;2023-02-22T02:13:43;97694.81;;;1.30;100.00
21096;BME280;10706;49.036;12.112;2023-02-22T02:16:09;97691.00;;;1.33;100.00
21096;BME280;10706;49.036;12.112;2023-02-22T02:18:35;97697.63;;;1.29;100.00
21096;BME280;10706;49.036;12.112;2023-02-22T02:21:38;97687.47;;;1.26;100.00
21096;BME280;10706;49.036;12.112;2023-02-22T02:27:00;97683.72;;;1.20;100.00
21096;BME280;10706;49.036;12.112;2023-02-22T02:35:28;97687.22;;;1.12;100.00
21096;BME280;10706;49.036;12.112;2023-02-22T02:40:54;97681.06;;;1.05;100.00
21096;BME280;10706;49.036;12.112;2023-02-22T02:43:46;97672.97;;;1.07;100.00
21096;BME280;10706;49.036;12.112;2023-02-22T02:48:56;97670.13;;;0.93;99.99
21096;BME280;10706;49.036;12.112;2023-02-22T02:51:29;97668.53;;;0.84;99.71
21096;BME280;10706;49.036;12.112;2023-02-22T02:53:57;97665.25;;;0.90;100.00
21096;BME280;10706;49.036;12.112;2023-02-22T02:56:24;97666.56;;;0.86;100.00
21096;BME280;10706;49.036;12.112;2023-02-22T02:58:52;97662.13;;;0.87;100.00
21096;BME280;10706;49.036;12.112;2023-02-22T03:16:32;97647.22;;;0.56;100.00
21096;BME280;10706;49.036;12.112;2023-02-22T03:19:31;97651.53;;;0.49;100.00
21096;BME280;10706;49.036;12.112;2023-02-22T03:22:23;97639.25;;;0.41;100.00
21096;BME280;10706;49.036;12.112;2023-02-22T03:25:00;97639.44;;;0.40;100.00
21096;BME280;10706;49.036;12.112;2023-02-22T03:27:46;97643.22;;;0.37;100.00
21096;BME280;10706;49.036;12.112;2023-02-22T03:30:26;97647.50;;;0.38;100.00
21096;BME280;10706;49.036;12.112;2023-02-22T03:33:08;97653.56;;;0.38;100.00
21096;BME280;10706;49.036;12.112;2023-02-22T03:35:41;97649.25;;;0.46;100.00
21096;BME280;10706;49.036;12.112;2023-02-22T03:38:11;97642.34;;;0.45;100.00
21096;BME280;10706;49.036;12.112;2023-02-22T03:40:46;97652.88;;;0.45;100.00
21096;BME280;10706;49.036;12.112;2023-02-22T03:43:18;97651.25;;;0.44;100.00
21096;BME280;10706;49.036;12.112;2023-02-22T03:45:48;97649.59;;;0.43;100.00
21096;BME280;10706;49.036;12.112;2023-02-22T03:48:53;97652.88;;;0.45;100.00
21096;BME280;10706;49.036;12.112;2023-02-22T03:51:25;97647.97;;;0.42;100.00
21096;BME280;10706;49.036;12.112;2023-02-22T03:53:52;97642.34;;;0.45;100.00
21096;BME280;10706;49.036;12.112;2023-02-22T03:56:32;97642.56;;;0.35;100.00
21096;BME280;10706;49.036;12.112;2023-02-22T03:59:10;97643.13;;;0.30;100.00
21096;BME280;10706;49.036;12.112;2023-02-22T04:01:36;97642.47;;;0.28;100.00
21096;BME280;10706;49.036;12.112;2023-02-22T04:04:02;97649.66;;;0.26;100.00
21096;BME280;10706;49.036;12.112;2023-02-22T04:06:28;97645.47;;;0.17;100.00
21096;BME280;10706;49.036;12.112;2023-02-22T04:08:55;97647.16;;;0.10;100.00
21096;BME280;10706;49.036;12.112;2023-02-22T04:11:21;97641.25;;;0.08;100.00
21096;BME280;10706;49.036;12.112;2023-02-22T04:13:47;97642.88;;;0.09;100.00
21096;BME280;10706;49.036;12.112;2023-02-22T04:16:12;97638.63;;;0.08;100.00
21096;BME280;10706;49.036;12.112;2023-02-22T04:18:38;97645.19;;;0.04;100.00
21096;BME280;10706;49.036;12.112;2023-02-22T04:21:04;97641.44;;;-0.02;100.00
21096;BME280;10706;49.036;12.112;2023-02-22T04:23:30;97641.44;;;-0.02;100.00
21096;BME280;10706;49.036;12.112;2023-02-22T04:25:55;97639.00;;;-0.04;100.00
21096;BME280;10706;49.036;12.112;2023-02-22T04:28:21;97642.94;;;-0.08;100.00
21096;BME280;10706;49.036;12.112;2023-02-22T04:30:47;97645.75;;;-0.09;100.00
21096;BME280;10706;49.036;12.112;2023-02-22T04:33:13;97648.53;;;-0.11;100.00
21096;BME280;10706;49.036;12.112;2023-02-22T04:35:40;97647.69;;;-0.11;100.00
21096;BME280;10706;49.036;12.112;2023-02-22T04:38:06;97643.75;;;-0.07;100.00
21096;BME280;10706;49.036;12.112;2023-02-22T04:40:34;97644.56;;;-0.07;100.00
21096;BME280;10706;49.036;12.112;2023-02-22T04:43:00;97632.59;;;-0.01;100.00
21096;BME280;10706;49.036;12.112;2023-02-22T04:45:25;97629.81;;;-0.08;100.00
21096;BME280;10706;49.036;12.112;2023-02-22T04:47:51;97633.94;;;-0.13;100.00
21096;BME280;10706;49.036;12.112;2023-02-22T04:50:17;97640.19;;;-0.14;100.00
21096;BME280;10706;49.036;12.112;2023-02-22T04:52:43;97633.75;;;-0.04;100.00
21096;BME280;10706;49.036;12.112;2023-02-22T04:55:10;97638.31;;;0.03;100.00
21096;BME280;10706;49.036;12.112;2023-02-22T04:57:36;97638.31;;;0.03;100.00
21096;BME280;10706;49.036;12.112;2023-02-22T05:00:04;97641.56;;;0.05;100.00
21096;BME280;10706;49.036;12.112;2023-02-22T05:02:30;97639.06;;;0.19;100.00
21096;BME280;10706;49.036;12.112;2023-02-22T05:04:56;97631.00;;;0.21;100.00
21096;BME280;10706;49.036;12.112;2023-02-22T05:07:22;97638.50;;;0.32;100.00
21096;BME280;10706;49.036;12.112;2023-02-22T05:09:47;97638.59;;;0.47;100.00
21096;BME280;10706;49.036;12.112;2023-02-22T05:12:13;97644.94;;;0.53;100.00
21096;BME280;10706;49.036;12.112;2023-02-22T05:14:39;97643.78;;;0.55;100.00
21096;BME280;10706;49.036;12.112;2023-02-22T05:17:06;97637.31;;;0.66;100.00
21096;BME280;10706;49.036;12.112;2023-02-22T05:19:32;97642.25;;;0.84;100.00
21096;BME280;10706;49.036;12.112;2023-02-22T05:21:57;97631.41;;;0.87;100.00
21096;BME280;10706;49.036;12.112;2023-02-22T05:24:23;97637.78;;;0.93;100.00
21096;BME280;10706;49.036;12.112;2023-02-22T05:26:49;97636.41;;;0.97;100.00
21096;BME280;10706;49.036;12.112;2023-02-22T05:29:15;97635.03;;;1.09;100.00
21096;BME280;10706;49.036;12.112;2023-02-22T05:31:41;97624.06;;;1.21;100.00
21096;BME280;10706;49.036;12.112;2023-02-22T05:34:07;97631.25;;;1.27;100.00
21096;BME280;10706;49.036;12.112;2023-02-22T05:36:33;97631.16;;;1.35;100.00
21096;BME280;10706;49.036;12.112;2023-02-22T05:38:58;97626.31;;;1.47;100.00
21096;BME280;10706;49.036;12.112;2023-02-22T05:41:24;97624.84;;;1.59;100.00
21096;BME280;10706;49.036;12.112;2023-02-22T05:43:50;97626.56;;;1.67;100.00
21096;BME280;10706;49.036;12.112;2023-02-22T05:46:15;97621.59;;;1.72;100.00
21096;BME280;10706;49.036;12.112;2023-02-22T05:48:41;97630.50;;;1.71;100.00
21096;BME280;10706;49.036;12.112;2023-02-22T05:51:07;97626.94;;;1.79;100.00
21096;BME280;10706;49.036;12.112;2023-02-22T05:53:34;97623.13;;;1.81;100.00
21096;BME280;10706;49.036;12.112;2023-02-22T05:56:00;97628.75;;;1.78;100.00
21096;BME280;10706;49.036;12.112;2023-02-22T05:58:26;97627.47;;;1.74;100.00
21096;BME280;10706;49.036;12.112;2023-02-22T06:00:51;97620.94;;;1.70;100.00
21096;BME280;10706;49.036;12.112;2023-02-22T06:03:17;97616.22;;;1.80;100.00
21096;BME280;10706;49.036;12.112;2023-02-22T06:05:43;97623.31;;;1.80;100.00
21096;BME280;10706;49.036;12.112;2023-02-22T06:08:09;97611.22;;;2.00;100.00
21096;BME280;10706;49.036;12.112;2023-02-22T06:10:35;97615.78;;;1.77;100.00
21096;BME280;10706;49.036;12.112;2023-02-22T06:13:02;97614.69;;;1.71;100.00
21096;BME280;10706;49.036;12.112;2023-02-22T06:15:28;97617.22;;;1.49;100.00
21096;BME280;10706;49.036;12.112;2023-02-22T06:17:55;97620.84;;;1.63;100.00
21096;BME280;10706;49.036;12.112;2023-02-22T06:20:24;97615.97;;;1.60;100.00
21096;BME280;10706;49.036;12.112;2023-02-22T06:22:53;97618.78;;;1.59;100.00
21096;BME280;10706;49.036;12.112;2023-02-22T06:25:23;97615.41;;;1.65;100.00
21096;BME280;10706;49.036;12.112;2023-02-22T06:27:50;97617.22;;;1.64;100.00
21096;BME280;10706;49.036;12.112;2023-02-22T06:30:20;97625.84;;;1.73;100.00
21096;BME280;10706;49.036;12.112;2023-02-22T06:32:46;97626.56;;;1.52;100.00
21096;BME280;10706;49.036;12.112;2023-02-22T06:35:13;97629.19;;;1.37;100.00
21096;BME280;10706;49.036;12.112;2023-02-22T06:37:39;97631.13;;;1.20;100.00
21096;BME280;10706;49.036;12.112;2023-02-22T06:40:05;97625.69;;;1.22;100.00
21096;BME280;10706;49.036;12.112;2023-02-22T06:42:31;97637.28;;;1.12;100.00
21096;BME280;10706;49.036;12.112;2023-02-22T06:44:57;97634.00;;;1.10;100.00
21096;BME280;10706;49.036;12.112;2023-02-22T06:47:23;97637.41;;;1.19;100.00
21096;BME280;10706;49.036;12.112;2023-02-22T06:49:56;97638.63;;;1.31;100.00
21096;BME280;10706;49.036;12.112;2023-02-22T06:52:24;97641.03;;;1.33;100.00
21096;BME280;10706;49.036;12.112;2023-02-22T06:54:50;97643.31;;;1.36;100.00
21096;BME280;10706;49.036;12.112;2023-02-22T06:57:16;97650.94;;;1.31;100.00
21096;BME280;10706;49.036;12.112;2023-02-22T06:59:42;97648.97;;;1.48;100.00
21096;BME280;10706;49.036;12.112;2023-02-22T07:02:13;97651.50;;;1.41;100.00
21096;BME280;10706;49.036;12.112;2023-02-22T07:04:39;97651.16;;;1.59;100.00
21096;BME280;10706;49.036;12.112;2023-02-22T07:07:05;97657.69;;;1.63;100.00
21096;BME280;10706;49.036;12.112;2023-02-22T07:09:31;97652.19;;;1.73;100.00
21096;BME280;10706;49.036;12.112;2023-02-22T07:11:57;97656.59;;;1.58;100.00
21096;BME280;10706;49.036;12.112;2023-02-22T07:14:23;97651.25;;;1.51;100.00
21096;BME280;10706;49.036;12.112;2023-02-22T07:16:49;97656.06;;;1.62;100.00
21096;BME280;10706;49.036;12.112;2023-02-22T07:19:15;97660.59;;;1.68;100.00
21096;BME280;10706;49.036;12.112;2023-02-22T07:21:40;97659.63;;;1.69;100.00
21096;BME280;10706;49.036;12.112;2023-02-22T07:24:06;97650.19;;;1.90;100.00
21096;BME280;10706;49.036;12.112;2023-02-22T07:26:41;97653.72;;;1.97;100.00
21096;BME280;10706;49.036;12.112;2023-02-22T07:29:07;97646.25;;;2.16;100.00
21096;BME280;10706;49.036;12.112;2023-02-22T07:31:37;97650.34;;;2.18;98.41
21096;BME280;10706;49.036;12.112;2023-02-22T07:34:03;97657.88;;;2.06;100.00
21096;BME280;10706;49.036;12.112;2023-02-22T07:36:29;97645.88;;;2.19;100.00
21096;BME280;10706;49.036;12.112;2023-02-22T07:38:54;97654.53;;;2.49;100.00
21096;BME280;10706;49.036;12.112;2023-02-22T07:41:20;97651.97;;;2.70;97.12
21096;BME280;10706;49.036;12.112;2023-02-22T07:43:47;97643.16;;;2.63;97.33
21096;BME280;10706;49.036;12.112;2023-02-22T07:46:13;97646.38;;;2.44;98.63
21096;BME280;10706;49.036;12.112;2023-02-22T07:48:39;97638.56;;;2.50;98.30
21096;BME280;10706;49.036;12.112;2023-02-22T07:51:05;97640.81;;;2.53;97.04
21096;BME280;10706;49.036;12.112;2023-02-22T07:53:32;97637.94;;;2.48;98.05
21096;BME280;10706;49.036;12.112;2023-02-22T07:56:04;97635.44;;;2.62;97.70
21096;BME280;10706;49.036;12.112;2023-02-22T07:58:31;97633.88;;;2.67;97.44
21096;BME280;10706;49.036;12.112;2023-02-22T08:00:57;97636.44;;;2.82;98.70
21096;BME280;10706;49.036;12.112;2023-02-22T08:03:25;97639.22;;;2.96;97.64
21096;BME280;10706;49.036;12.112;2023-02-22T08:05:55;97639.19;;;3.17;97.85
21096;BME280;10706;49.036;12.112;2023-02-22T08:08:21;97640.25;;;3.23;97.57
21096;BME280;10706;49.036;12.112;2023-02-22T08:10:48;97641.75;;;3.32;97.54
21096;BME280;10706;49.036;12.112;2023-02-22T08:13:16;97642.41;;;3.34;95.41
21096;BME280;10706;49.036;12.112;2023-02-22T08:15:42;97642.66;;;2.96;97.34
21096;BME280;10706;49.036;12.112;2023-02-22T08:18:15;97646.53;;;3.00;98.75
21096;BME280;10706;49.036;12.112;2023-02-22T08:20:43;97640.53;;;3.06;98.98
21096;BME280;10706;49.036;12.112;2023-02-22T08:23:11;97636.47;;;3.32;98.84
21096;BME280;10706;49.036;12.112;2023-02-22T08:25:37;97639.94;;;3.61;97.76
21096;BME280;10706;49.036;12.112;2023-02-22T08:28:12;97628.13;;;3.92;97.04
21096;BME280;10706;49.036;12.112;2023-02-22T08:30:39;97632.63;;;4.46;92.39
21096;BME280;10706;49.036;12.112;2023-02-22T08:33:07;97628.34;;;4.38;93.62
21096;BME280;10706;49.036;12.112;2023-02-22T08:35:33;97626.59;;;4.65;91.55
21096;BME280;10706;49.036;12.112;2023-02-22T08:38:02;97622.34;;;4.78;90.93
21096;BME280;10706;49.036;12.112;2023-02-22T08:40:33;97618.09;;;4.90;91.40
21096;BME280;10706;49.036;12.112;2023-02-22T08:42:59;97616.44;;;4.76;92.19
21096;BME280;10706;49.036;12.112;2023-02-22T08:45:27;97613.81;;;4.89;92.46
21096;BME280;10706;49.036;12.112;2023-02-22T08:47:53;97614.00;;;4.81;91.81
21096;BME280;10706;49.036;12.112;2023-02-22T08:50:28;97616.00;;;4.72;93.50
21096;BME280;10706;49.036;12.112;2023-02-22T08:52:57;97616.25;;;4.91;92.82
21096;BME280;10706;49.036;12.112;2023-02-22T08:55:30;97617.69;;;5.13;92.23
21096;BME280;10706;49.036;12.112;2023-02-22T08:57:58;97615.84;;;5.27;91.10
21096;BME280;10706;49.036;12.112;2023-02-22T09:00:25;97615.81;;;5.60;90.84
21096;BME280;10706;49.036;12.112;2023-02-22T09:02:54;97608.47;;;5.82;89.85
21096;BME280;10706;49.036;12.112;2023-02-22T09:05:20;97617.19;;;6.03;88.74
21096;BME280;10706;49.036;12.112;2023-02-22T09:07:46;97616.59;;;5.88;89.11
21096;BME280;10706;49.036;12.112;2023-02-22T09:10:25;97617.28;;;5.43;90.92
21096;BME280;10706;49.036;12.112;2023-02-22T09:12:52;97614.41;;;5.04;92.33
21096;BME280;10706;49.036;12.112;2023-02-22T09:15:23;97621.56;;;5.31;92.48
21096;BME280;10706;49.036;12.112;2023-02-22T09:17:49;97610.16;;;5.30;93.45
21096;BME280;10706;49.036;12.112;2023-02-22T09:20:18;97614.84;;;5.21;92.86
21096;BME280;10706;49.036;12.112;2023-02-22T09:22:46;97611.97;;;5.36;92.31
21096;BME280;10706;49.036;12.112;2023-02-22T09:25:11;97613.63;;;5.37;93.28
21096;BME280;10706;49.036;12.112;2023-02-22T09:27:37;97614.00;;;5.48;93.30
21096;BME280;10706;49.036;12.112;2023-02-22T09:30:06;97609.56;;;5.28;93.40
21096;BME280;10706;49.036;12.112;2023-02-22T09:32:36;97609.34;;;5.43;93.27
21096;BME280;10706;49.036;12.112;2023-02-22T09:35:01;97604.22;;;5.61;92.31
21096;BME280;10706;49.036;12.112;2023-02-22T09:37:27;97599.06;;;5.87;91.63
21096;BME280;10706;49.036;12.112;2023-02-22T09:39:53;97600.91;;;5.86;92.22
21096;BME280;10706;49.036;12.112;2023-02-22T09:42:35;97600.00;;;6.19;90.92
21096;BME280;10706;49.036;12.112;2023-02-22T09:45:15;97595.56;;;6.51;90.73
21096;BME280;10706;49.036;12.112;2023-02-22T09:47:52;97594.56;;;6.84;89.34
21096;BME280;10706;49.036;12.112;2023-02-22T09:50:29;97593.94;;;7.14;88.26
21096;BME280;10706;49.036;12.112;2023-02-22T09:53:06;97584.97;;;7.58;86.36
21096;BME280;10706;49.036;12.112;2023-02-22T09:58:33;97579.91;;;7.94;83.24
21096;BME280;10706;49.036;12.112;2023-02-22T10:01:37;97578.16;;;8.18;85.82
21096;BME280;10706;49.036;12.112;2023-02-22T10:07:25;97573.31;;;8.64;83.35
21096;BME280;10706;49.036;12.112;2023-02-22T10:09:54;97563.69;;;8.63;82.55
21096;BME280;10706;49.036;12.112;2023-02-22T10:13:08;97557.50;;;8.81;83.04
21096;BME280;10706;49.036;12.112;2023-02-22T10:19:03;97562.28;;;9.14;82.09
21096;BME280;10706;49.036;12.112;2023-02-22T10:22:03;97561.72;;;9.36;81.47
21096;BME280;10706;49.036;12.112;2023-02-22T10:25:02;97556.63;;;9.58;80.42
21096;BME280;10706;49.036;12.112;2023-02-22T10:27:44;97542.00;;;9.72;79.24
21096;BME280;10706;49.036;12.112;2023-02-22T10:30:29;97544.66;;;9.84;80.81
21096;BME280;10706;49.036;12.112;2023-02-22T10:33:18;97546.53;;;9.71;79.38
21096;BME280;10706;49.036;12.112;2023-02-22T10:35:46;97542.44;;;9.81;79.77
21096;BME280;10706;49.036;12.112;2023-02-22T10:38:22;97543.94;;;9.88;79.08
21096;BME280;10706;49.036;12.112;2023-02-22T10:41:02;97536.53;;;9.79;79.75
21096;BME280;10706;49.036;12.112;2023-02-22T10:43:39;97531.81;;;9.69;79.06
21096;BME280;10706;49.036;12.112;2023-02-22T10:46:09;97541.28;;;9.88;79.57
21096;BME280;10706;49.036;12.112;2023-02-22T10:48:39;97529.47;;;9.84;79.81
21096;BME280;10706;49.036;12.112;2023-02-22T10:51:09;97528.06;;;9.93;79.20
21096;BME280;10706;49.036;12.112;2023-02-22T10:53:36;97524.00;;;9.91;78.72
21096;BME280;10706;49.036;12.112;2023-02-22T10:56:21;97519.31;;;9.98;79.97
21096;BME280;10706;49.036;12.112;2023-02-22T10:58:56;97516.25;;;10.18;78.27
21096;BME280;10706;49.036;12.112;2023-02-22T11:04:15;97519.38;;;10.56;78.14
21096;BME280;10706;49.036;12.112;2023-02-22T11:07:08;97504.69;;;10.70;77.89
21096;BME280;10706;49.036;12.112;2023-02-22T11:10:05;97503.84;;;11.03;76.25
21096;BME280;10706;49.036;12.112;2023-02-22T11:12:38;97510.16;;;11.14;76.44
21096;BME280;10706;49.036;12.112;2023-02-22T11:17:46;97499.50;;;11.53;75.17
21096;BME280;10706;49.036;12.112;2023-02-22T11:20:20;97490.94;;;11.73;73.36
21096;BME280;10706;49.036;12.112;2023-02-22T11:22:52;97486.50;;;11.84;72.31
21096;BME280;10706;49.036;12.112;2023-02-22T11:25:24;97482.91;;;11.95;72.14
21096;BME280;10706;49.036;12.112;2023-02-22T11:27:51;97473.09;;;11.79;73.41
21096;BME280;10706;49.036;12.112;2023-02-22T11:30:29;97476.31;;;11.81;72.05
21096;BME280;10706;49.036;12.112;2023-02-22T11:38:29;97466.34;;;12.20;70.90
21096;BME280;10706;49.036;12.112;2023-02-22T11:41:14;97461.72;;;12.16;71.60
21096;BME280;10706;49.036;12.112;2023-02-22T11:43:48;97452.75;;;12.27;69.28
21096;BME280;10706;49.036;12.112;2023-02-22T11:46:31;97454.47;;;12.38;69.96
21096;BME280;10706;49.036;12.112;2023-02-22T11:49:09;97447.50;;;12.37;69.79
21096;BME280;10706;49.036;12.112;2023-02-22T11:58:00;97438.19;;;12.77;70.22
21096;BME280;10706;49.036;12.112;2023-02-22T12:00:59;97443.63;;;12.55;68.28
21096;BME280;10706;49.036;12.112;2023-02-22T12:04:07;97429.81;;;12.69;69.21
21096;BME280;10706;49.036;12.112;2023-02-22T12:12:03;97432.63;;;12.84;69.07
21096;BME280;10706;49.036;12.112;2023-02-22T12:23:27;97425.84;;;13.19;68.07
21096;BME280;10706;49.036;12.112;2023-02-22T12:26:04;97425.88;;;13.24;67.24
21096;BME280;10706;49.036;12.112;2023-02-22T12:28:37;97420.91;;;13.43;66.25
21096;BME280;10706;49.036;12.112;2023-02-22T12:31:24;97409.81;;;13.92;67.03
21096;BME280;10706;49.036;12.112;2023-02-22T12:37:15;97414.75;;;14.67;61.78
21096;BME280;10706;49.036;12.112;2023-02-22T12:45:41;97398.63;;;14.98;60.36
21096;BME280;10706;49.036;12.112;2023-02-22T12:51:02;97395.66;;;16.25;56.84
21096;BME280;10706;49.036;12.112;2023-02-22T12:53:34;97393.50;;;16.90;55.66
21096;BME280;10706;49.036;12.112;2023-02-22T12:56:25;97398.75;;;16.77;54.74
21096;BME280;10706;49.036;12.112;2023-02-22T13:01:44;97389.72;;;16.57;55.38
21096;BME280;10706;49.036;12.112;2023-02-22T13:04:12;97397.66;;;16.09;56.57
21096;BME280;10706;49.036;12.112;2023-02-22T13:10:03;97387.69;;;16.44;54.42
21096;BME280;10706;49.036;12.112;2023-02-22T13:13:00;97384.06;;;15.80;57.59
21096;BME280;10706;49.036;12.112;2023-02-22T13:18:45;97378.91;;;17.21;53.08
21096;BME280;10706;49.036;12.112;2023-02-22T13:24:21;97374.22;;;16.44;55.09
21096;BME280;10706;49.036;12.112;2023-02-22T13:26:59;97378.81;;;16.09;55.70
21096;BME280;10706;49.036;12.112;2023-02-22T13:29:38;97371.34;;;16.64;54.12
21096;BME280;10706;49.036;12.112;2023-02-22T13:52:23;97366.97;;;16.44;54.98
21096;BME280;10706;49.036;12.112;2023-02-22T13:55:01;97366.34;;;16.82;53.41
21096;BME280;10706;49.036;12.112;2023-02-22T13:57:44;97355.25;;;16.59;53.71
21096;BME280;10706;49.036;12.112;2023-02-22T14:10:51;97351.31;;;18.10;49.66
21096;BME280;10706;49.036;12.112;2023-02-22T14:13:19;97348.41;;;18.58;48.92
21096;BME280;10706;49.036;12.112;2023-02-22T14:18:48;97345.97;;;18.90;47.09
21096;BME280;10706;49.036;12.112;2023-02-22T14:21:20;97341.88;;;19.34;46.52
21096;BME280;10706;49.036;12.112;2023-02-22T14:23:51;97339.59;;;18.67;47.73
21096;BME280;10706;49.036;12.112;2023-02-22T14:26:33;97335.69;;;18.07;48.92
21096;BME280;10706;49.036;12.112;2023-02-22T14:32:00;97332.25;;;19.14;45.36
21096;BME280;10706;49.036;12.112;2023-02-22T14:34:52;97332.47;;;18.71;47.21
21096;BME280;10706;49.036;12.112;2023-02-22T14:37:25;97328.84;;;19.36;46.57
21096;BME280;10706;49.036;12.112;2023-02-22T14:40:05;97324.56;;;20.30;43.94
21096;BME280;10706;49.036;12.112;2023-02-22T14:42:44;97322.16;;;20.74;42.65
21096;BME280;10706;49.036;12.112;2023-02-22T14:45:25;97313.38;;;20.77;41.88
21096;BME280;10706;49.036;12.112;2023-02-22T14:48:10;97314.28;;;20.95;42.42
21096;BME280;10706;49.036;12.112;2023-02-22T14:50:51;97311.22;;;20.88;41.84
21096;BME280;10706;49.036;12.112;2023-02-22T14:53:35;97308.38;;;20.62;42.70
21096;BME280;10706;49.036;12.112;2023-02-22T15:01:32;97313.09;;;19.38;45.07
21096;BME280;10706;49.036;12.112;2023-02-22T15:04:22;97314.63;;;18.56;45.66
21096;BME280;10706;49.036;12.112;2023-02-22T15:06:51;97311.50;;;18.49;46.29
21096;BME280;10706;49.036;12.112;2023-02-22T15:09:24;97299.84;;;18.01;47.37
21096;BME280;10706;49.036;12.112;2023-02-22T15:14:32;97305.28;;;17.77;48.41
21096;BME280;10706;49.036;12.112;2023-02-22T15:17:11;97305.41;;;16.86;50.25
21096;BME280;10706;49.036;12.112;2023-02-22T15:19:40;97297.06;;;17.31;50.11
21096;BME280;10706;49.036;12.112;2023-02-22T15:22:20;97297.13;;;17.01;50.37
21096;BME280;10706;49.036;12.112;2023-02-22T15:27:25;97289.84;;;15.80;54.23
21096;BME280;10706;49.036;12.112;2023-02-22T15:30:00;97299.91;;;15.64;55.11
21096;BME280;10706;49.036;12.112;2023-02-22T15:32:41;97295.88;;;15.01;56.53
21096;BME280;10706;49.036;12.112;2023-02-22T15:37:46;97293.56;;;14.48;58.00
21096;BME280;10706;49.036;12.112;2023-02-22T15:40:16;97298.44;;;14.36;58.82
21096;BME280;10706;49.036;12.112;2023-02-22T15:42:49;97289.06;;;14.23;60.10
21096;BME280;10706;49.036;12.112;2023-02-22T15:45:20;97292.00;;;14.11;59.69